Time;durP1;ratioP1;P1;durP2;ratioP2;P2;SDS_P1;SDS_P2;PMS_P1;PMS_P2;Temp;Humidity;BMP_temperature;BMP_pressure;BME280_temperature;BME280_humidity;BME280_pressure;Samples;Min_cycle;Max_cycle;Signal;HPM_P1;HPM_P2
2021/10/12 00:01:09;;;;;;;2.63;0.47;;;;;;;11.50;100.00;101140.00;5052537;28;20078;-65
2021/10/12 00:03:34;;;;;;;2.00;0.65;;;;;;;11.57;100.00;101142.09;5050957;28;20032;-65
2021/10/12 00:06:00;;;;;;;2.97;0.70;;;;;;;11.56;100.00;101144.00;5052016;28;20112;-65
2021/10/12 00:08:26;;;;;;;3.03;0.60;;;;;;;11.57;100.00;101132.09;5052925;28;20099;-65
2021/10/12 00:10:51;;;;;;;6.80;1.00;;;;;;;11.52;100.00;101124.25;5053008;28;20036;-66
2021/10/12 00:13:17;;;;;;;6.22;0.77;;;;;;;11.59;100.00;101121.72;5049749;28;20029;-65
2021/10/12 00:15:43;;;;;;;0.77;0.55;;;;;;;11.59;100.00;101143.28;5052444;28;20033;-65
2021/10/12 00:18:09;;;;;;;1.38;0.50;;;;;;;11.54;100.00;101140.88;5051847;28;20190;-65
2021/10/12 00:20:35;;;;;;;0.45;0.45;;;;;;;11.61;100.00;101134.88;5050174;28;20028;-66
2021/10/12 00:23:02;;;;;;;3.65;0.57;;;;;;;11.59;100.00;101115.56;5052297;28;20048;-65
2021/10/12 00:25:27;;;;;;;4.05;0.70;;;;;;;11.57;100.00;101123.22;5052837;28;20048;-65
2021/10/12 00:27:54;;;;;;;2.63;0.50;;;;;;;11.59;100.00;101110.16;5049634;28;20581;-65
2021/10/12 00:30:19;;;;;;;0.55;0.40;;;;;;;11.49;100.00;101094.50;5053064;28;20033;-64
2021/10/12 00:32:45;;;;;;;1.58;0.40;;;;;;;11.59;100.00;101089.34;5049269;28;20533;-65
2021/10/12 00:35:12;;;;;;;1.75;0.70;;;;;;;11.64;100.00;101099.09;5051474;28;20086;-65
2021/10/12 00:37:38;;;;;;;0.90;0.63;;;;;;;11.55;100.00;101099.28;5052293;28;20040;-64
2021/10/12 00:40:04;;;;;;;2.42;0.88;;;;;;;11.59;100.00;101102.81;5048703;28;20040;-64
2021/10/12 00:42:30;;;;;;;1.27;0.50;;;;;;;11.63;100.00;101113.72;5050373;28;20104;-65
2021/10/12 00:44:56;;;;;;;1.38;0.70;;;;;;;11.69;100.00;101117.75;5036539;28;20116;-65
2021/10/12 00:47:22;;;;;;;1.13;0.50;;;;;;;11.78;100.00;101126.44;5048956;28;20099;-64
2021/10/12 00:49:47;;;;;;;1.38;0.45;;;;;;;11.72;100.00;101125.13;5051914;28;20572;-65
2021/10/12 00:52:13;;;;;;;4.60;0.63;;;;;;;11.72;100.00;101119.72;5047458;28;20032;-65
2021/10/12 00:54:38;;;;;;;1.70;0.73;;;;;;;11.69;100.00;101115.81;5051108;28;20448;-64
2021/10/12 00:57:06;;;;;;;1.83;0.75;;;;;;;11.74;100.00;101123.66;5052487;28;20043;-65
2021/10/12 00:59:31;;;;;;;1.50;0.70;;;;;;;11.72;100.00;101119.72;5042754;28;20072;-65
2021/10/12 01:01:57;;;;;;;2.47;0.90;;;;;;;11.69;100.00;101110.41;5047739;28;20057;-65
2021/10/12 01:04:22;;;;;;;1.15;0.70;;;;;;;11.69;100.00;101107.72;5050938;28;20398;-65
2021/10/12 01:06:48;;;;;;;1.67;0.73;;;;;;;11.73;100.00;101107.78;5052202;28;20108;-65
2021/10/12 01:09:13;;;;;;;2.50;0.50;;;;;;;11.71;100.00;101107.38;5051263;28;20045;-64
2021/10/12 01:11:39;;;;;;;1.60;1.05;;;;;;;11.73;100.00;101110.50;5048584;28;20029;-65
2021/10/12 01:14:04;;;;;;;2.58;0.85;;;;;;;11.72;100.00;101106.25;5051146;28;20064;-65
2021/10/12 01:16:30;;;;;;;1.00;0.80;;;;;;;11.64;100.00;101107.19;5051295;28;20485;-64
2021/10/12 01:19:01;;;;;;;2.05;0.90;;;;;;;11.71;100.00;101099.28;5050573;28;20637;-64
2021/10/12 01:21:28;;;;;;;1.20;0.93;;;;;;;11.69;100.00;101086.13;5047303;28;20094;-64
2021/10/12 01:23:54;;;;;;;1.83;1.00;;;;;;;11.68;100.00;101089.97;5052150;28;20280;-64
2021/10/12 01:26:20;;;;;;;5.63;2.05;;;;;;;11.69;100.00;101088.84;5047550;28;20032;-65
2021/10/12 01:28:46;;;;;;;2.40;1.20;;;;;;;11.69;100.00;101082.69;5051481;28;20033;-64
2021/10/12 01:31:26;;;;;;;1.42;0.90;;;;;;;11.68;100.00;101081.09;5044676;28;20113;-64
2021/10/12 01:33:53;;;;;;;1.70;1.40;;;;;;;11.71;100.00;101078.47;5047654;28;20524;-65
2021/10/12 01:36:19;;;;;;;2.45;0.90;;;;;;;11.66;100.00;101075.25;5051743;28;20033;-64
2021/10/12 01:38:45;;;;;;;1.58;1.08;;;;;;;11.63;100.00;101065.16;5051053;28;20163;-64
2021/10/12 01:41:11;;;;;;;1.23;1.02;;;;;;;11.60;100.00;101063.16;5050626;28;20116;-65
2021/10/12 01:43:37;;;;;;;2.97;1.15;;;;;;;11.63;100.00;101059.75;5051964;28;20447;-64
2021/10/12 01:46:05;;;;;;;1.88;1.10;;;;;;;11.61;100.00;101052.00;5036442;28;20041;-64
2021/10/12 01:48:31;;;;;;;2.53;1.20;;;;;;;11.64;100.00;101053.22;5048030;28;20436;-65
2021/10/12 01:50:57;;;;;;;2.85;1.75;;;;;;;11.61;100.00;101056.63;5051209;28;20025;-65
2021/10/12 01:53:22;;;;;;;8.45;1.30;;;;;;;11.57;100.00;101055.78;5051835;28;20505;-65
2021/10/12 01:55:48;;;;;;;4.13;0.98;;;;;;;11.64;100.00;101066.72;5048790;28;20412;-65
2021/10/12 01:58:13;;;;;;;1.08;0.88;;;;;;;11.60;100.00;101068.53;5050583;28;20047;-64
2021/10/12 02:00:39;;;;;;;3.83;0.85;;;;;;;11.54;100.00;101064.56;5050388;28;20029;-65
2021/10/12 02:03:05;;;;;;;0.80;0.50;;;;;;;11.49;100.00;101051.34;5051664;28;20375;-64
2021/10/12 02:05:30;;;;;;;2.15;0.80;;;;;;;11.54;100.00;101043.75;5049535;28;20033;-65
2021/10/12 02:07:56;;;;;;;1.20;0.75;;;;;;;11.51;100.00;101031.00;5047754;28;20044;-65
2021/10/12 02:10:21;;;;;;;1.35;0.85;;;;;;;11.51;100.00;101016.72;5050250;28;20025;-64
2021/10/12 02:12:47;;;;;;;1.30;0.80;;;;;;;11.52;100.00;101002.09;5050153;28;20105;-64
2021/10/12 02:15:13;;;;;;;1.10;0.77;;;;;;;11.57;100.00;101001.81;5047457;28;20024;-64
2021/10/12 02:17:38;;;;;;;2.00;0.93;;;;;;;11.54;100.00;100972.84;5050126;28;20032;-64
2021/10/12 02:20:06;;;;;;;1.15;0.82;;;;;;;11.51;100.00;100962.78;5050961;28;20509;-65
2021/10/12 02:22:32;;;;;;;1.15;0.82;;;;;;;11.53;100.00;100955.91;5051185;28;20094;-65
2021/10/12 02:24:58;;;;;;;1.40;0.70;;;;;;;11.51;100.00;100950.06;5047537;28;20021;-64
2021/10/12 02:27:23;;;;;;;0.75;0.73;;;;;;;11.51;100.00;100950.06;5050701;28;20550;-64
2021/10/12 02:29:49;;;;;;;1.88;0.60;;;;;;;11.53;100.00;100957.81;5042534;28;20028;-65
2021/10/12 02:32:16;;;;;;;1.05;0.82;;;;;;;11.48;100.00;100958.84;5046568;28;20028;-64
2021/10/12 02:34:41;;;;;;;1.33;0.80;;;;;;;11.44;100.00;100959.94;5049951;28;20033;-65
2021/10/12 02:37:07;;;;;;;1.55;0.98;;;;;;;11.39;100.00;100957.50;5047250;28;20028;-64
2021/10/12 02:39:33;;;;;;;2.85;1.05;;;;;;;11.40;100.00;100957.13;5049605;28;20032;-65
2021/10/12 02:41:58;;;;;;;1.85;1.05;;;;;;;11.37;100.00;100957.06;5050384;28;20045;-65
2021/10/12 02:44:24;;;;;;;1.25;0.82;;;;;;;11.33;100.00;100962.38;5049881;28;20024;-64
2021/10/12 02:46:50;;;;;;;1.85;0.88;;;;;;;11.28;100.00;100951.09;5046931;28;20029;-64
2021/10/12 02:49:15;;;;;;;1.35;0.80;;;;;;;11.26;100.00;100945.28;5046375;28;20060;-65
2021/10/12 02:51:41;;;;;;;0.63;0.63;;;;;;;11.17;100.00;100948.16;5048435;28;20075;-65
2021/10/12 02:54:06;;;;;;;1.52;0.90;;;;;;;11.23;100.00;100940.56;5050659;28;20033;-64
2021/10/12 02:56:32;;;;;;;3.35;0.70;;;;;;;11.16;100.00;100935.03;5045934;28;20021;-65
2021/10/12 02:58:57;;;;;;;2.05;0.77;;;;;;;11.16;100.00;100938.50;5045108;28;20516;-65
2021/10/12 03:01:23;;;;;;;2.15;0.77;;;;;;;11.11;100.00;100938.78;5048014;28;20033;-63
2021/10/12 03:03:48;;;;;;;1.15;0.70;;;;;;;11.13;100.00;100930.34;5049971;28;20135;-64
2021/10/12 03:06:14;;;;;;;1.50;0.68;;;;;;;11.11;100.00;100932.63;5047780;28;20032;-64
2021/10/12 03:08:40;;;;;;;1.88;0.85;;;;;;;11.13;100.00;100922.28;5049272;28;20098;-65
2021/10/12 03:11:06;;;;;;;1.52;0.90;;;;;;;11.14;100.00;100932.69;5045753;28;20041;-65
2021/10/12 03:13:31;;;;;;;2.80;1.05;;;;;;;11.15;100.00;100936.19;5048083;28;20095;-64
2021/10/12 03:15:57;;;;;;;2.35;1.02;;;;;;;11.16;100.00;100940.44;5047306;28;20032;-64
2021/10/12 03:18:22;;;;;;;1.88;0.95;;;;;;;11.16;100.00;100937.72;5049255;28;20060;-65
2021/10/12 03:20:48;;;;;;;4.80;1.05;;;;;;;11.16;100.00;100935.03;5049581;28;20047;-64
2021/10/12 03:23:13;;;;;;;4.35;1.10;;;;;;;11.14;100.00;100930.00;5046102;28;20117;-64
2021/10/12 03:25:39;;;;;;;3.70;0.98;;;;;;;11.12;100.00;100929.56;5049156;28;20043;-65
2021/10/12 03:28:05;;;;;;;1.88;0.63;;;;;;;11.19;100.00;100927.03;5049237;28;20047;-65
2021/10/12 03:30:30;;;;;;;2.63;0.75;;;;;;;11.17;100.00;100920.44;5047040;28;20037;-64
2021/10/12 03:32:56;;;;;;;1.52;0.68;;;;;;;11.16;100.00;100927.72;5042171;28;20029;-64
2021/10/12 03:35:34;;;;;;;1.55;0.57;;;;;;;11.18;100.00;100930.88;5044880;28;20418;-65
2021/10/12 03:37:59;;;;;;;4.05;1.20;;;;;;;11.16;100.00;100919.66;5044257;28;20024;-63
2021/10/12 03:40:25;;;;;;;2.95;0.93;;;;;;;11.16;100.00;100918.84;5047913;28;20390;-62
2021/10/12 03:42:51;;;;;;;1.77;0.80;;;;;;;11.14;100.00;100910.34;5047614;28;20067;-66
2021/10/12 03:45:16;;;;;;;1.77;0.47;;;;;;;11.11;100.00;100911.06;5047558;28;20036;-66
2021/10/12 03:47:42;;;;;;;3.47;0.70;;;;;;;11.09;100.00;100906.00;5045112;28;20033;-66
2021/10/12 03:50:08;;;;;;;1.50;0.68;;;;;;;11.04;100.00;100897.41;5049045;28;20068;-65
2021/10/12 03:52:33;;;;;;;1.40;0.55;;;;;;;11.03;100.00;100898.56;5049698;28;20452;-65
2021/10/12 03:54:58;;;;;;;0.88;0.50;;;;;;;11.03;100.00;100899.34;5049699;28;20084;-66
2021/10/12 03:57:24;;;;;;;1.17;0.50;;;;;;;11.05;100.00;100898.97;5046615;28;20029;-65
2021/10/12 03:59:49;;;;;;;0.70;0.43;;;;;;;11.02;100.00;100894.28;5048509;28;20366;-66
2021/10/12 04:02:15;;;;;;;1.77;0.30;;;;;;;10.97;100.00;100889.97;5049885;28;20056;-66
2021/10/12 04:04:40;;;;;;;1.05;0.30;;;;;;;10.93;100.00;100889.09;5045227;28;20037;-66
2021/10/12 04:07:06;;;;;;;0.85;0.40;;;;;;;10.94;100.00;100885.25;5041683;28;21413;-62
2021/10/12 04:09:31;;;;;;;0.20;0.20;;;;;;;10.96;100.00;100884.91;5048836;28;20025;-64
2021/10/12 04:11:57;;;;;;;1.55;0.28;;;;;;;10.95;100.00;100881.44;5048654;28;20474;-66
2021/10/12 04:14:23;;;;;;;0.22;0.20;;;;;;;10.97;100.00;100881.09;5050104;28;20044;-66
2021/10/12 04:16:48;;;;;;;0.30;0.20;;;;;;;10.93;100.00;100881.03;5046025;28;20048;-65
2021/10/12 04:19:14;;;;;;;1.33;0.35;;;;;;;10.91;100.00;100880.59;5048532;28;20028;-65
2021/10/12 04:21:40;;;;;;;0.47;0.28;;;;;;;10.89;100.00;100883.63;5049487;28;20243;-66
2021/10/12 04:24:06;;;;;;;0.30;0.30;;;;;;;10.90;100.00;100869.03;5046652;28;20032;-66
2021/10/12 04:26:32;;;;;;;0.30;0.30;;;;;;;10.90;100.00;100877.09;5047891;28;20447;-66
2021/10/12 04:28:57;;;;;;;0.30;0.30;;;;;;;10.89;100.00;100875.56;5049875;28;21159;-66
2021/10/12 04:31:22;;;;;;;0.28;0.28;;;;;;;10.85;100.00;100876.59;5050596;28;20116;-65
2021/10/12 04:33:48;;;;;;;0.47;0.38;;;;;;;10.85;100.00;100868.50;5052104;28;20060;-66
2021/10/12 04:36:14;;;;;;;0.88;0.43;;;;;;;10.79;100.00;100864.53;5046696;28;20106;-66
2021/10/12 04:38:39;;;;;;;0.95;0.40;;;;;;;10.84;100.00;100869.63;5051005;28;20033;-66
2021/10/12 04:41:07;;;;;;;1.85;0.22;;;;;;;10.88;100.00;100860.50;5051680;28;20037;-64
2021/10/12 04:43:32;;;;;;;0.50;0.38;;;;;;;10.82;100.00;100866.50;5049031;28;20469;-66
2021/10/12 04:45:58;;;;;;;0.20;0.20;;;;;;;10.85;100.00;100866.59;5047964;28;20049;-64
2021/10/12 04:48:23;;;;;;;0.35;0.20;;;;;;;10.85;100.00;100869.31;5046268;28;20021;-66
2021/10/12 04:50:49;;;;;;;0.20;0.20;;;;;;;10.85;100.00;100861.22;5047588;28;20091;-64
2021/10/12 04:53:15;;;;;;;0.25;0.20;;;;;;;10.74;100.00;100859.41;5045550;28;20056;-64
2021/10/12 04:55:40;;;;;;;0.80;0.32;;;;;;;10.78;100.00;100860.28;5047580;28;20036;-65
2021/10/12 04:58:10;;;;;;;0.22;0.22;;;;;;;10.73;100.00;100858.63;5046442;28;20031;-64
2021/10/12 05:00:36;;;;;;;0.65;0.30;;;;;;;10.72;100.00;100861.69;5043273;28;20106;-66
2021/10/12 05:03:01;;;;;;;1.02;0.40;;;;;;;10.68;100.00;100858.88;5048690;28;20036;-64
2021/10/12 05:05:27;;;;;;;0.40;0.30;;;;;;;10.69;100.00;100857.75;5049403;28;20032;-63
2021/10/12 05:07:53;;;;;;;0.32;0.30;;;;;;;10.67;100.00;100865.41;5048522;28;20541;-65
2021/10/12 05:10:19;;;;;;;0.40;0.40;;;;;;;10.71;100.00;100850.13;5049886;28;20112;-64
2021/10/12 05:12:47;;;;;;;2.60;0.32;;;;;;;10.75;100.00;100856.38;5050091;28;20025;-64
2021/10/12 05:15:19;;;;;;;0.82;0.40;;;;;;;10.78;100.00;100855.66;5049382;28;20057;-62
2021/10/12 05:17:47;;;;;;;3.28;0.63;;;;;;;10.79;100.00;100851.84;5046961;28;20490;-62
2021/10/12 05:20:15;;;;;;;1.77;0.60;;;;;;;10.77;100.00;100848.72;5046778;28;20516;-65
2021/10/12 05:22:41;;;;;;;0.40;0.40;;;;;;;10.66;100.00;100842.31;5047849;28;20068;-64
2021/10/12 05:25:06;;;;;;;1.92;0.38;;;;;;;10.72;100.00;100846.28;5046287;28;20064;-63
2021/10/12 05:27:35;;;;;;;0.90;0.40;;;;;;;10.68;100.00;100844.66;5037249;28;20033;-67
2021/10/12 05:30:02;;;;;;;0.73;0.70;;;;;;;10.70;100.00;100848.53;5044063;28;20039;-63
2021/10/12 05:32:28;;;;;;;0.65;0.65;;;;;;;10.70;100.00;100845.84;5044720;28;20029;-63
2021/10/12 05:34:57;;;;;;;2.30;0.70;;;;;;;10.71;100.00;100849.31;5050084;28;20432;-62
2021/10/12 05:37:24;;;;;;;0.93;0.55;;;;;;;10.63;100.00;100847.59;5045109;28;20055;-64
2021/10/12 05:39:49;;;;;;;1.10;0.70;;;;;;;10.62;100.00;100846.84;5049887;28;20040;-63
2021/10/12 05:42:15;;;;;;;4.07;1.00;;;;;;;10.61;100.00;100850.66;5050128;28;20033;-63
2021/10/12 05:44:40;;;;;;;0.95;0.82;;;;;;;10.62;100.00;100854.13;5048669;28;20383;-65
2021/10/12 05:47:06;;;;;;;1.08;0.70;;;;;;;10.60;100.00;100853.69;5047814;28;20394;-66
2021/10/12 05:49:31;;;;;;;1.30;0.75;;;;;;;10.63;100.00;100847.59;5039170;28;20033;-64
2021/10/12 05:51:58;;;;;;;1.35;0.90;;;;;;;10.58;100.00;100850.56;5047929;28;20041;-65
2021/10/12 05:54:26;;;;;;;1.50;0.80;;;;;;;10.54;100.00;100850.50;5039975;28;20398;-63
2021/10/12 05:57:04;;;;;;;2.28;0.90;;;;;;;10.56;100.00;100855.53;5041155;28;20445;-64
2021/10/12 05:59:31;;;;;;;1.83;1.23;;;;;;;10.62;100.00;100854.91;5047612;28;20139;-64
2021/10/12 06:01:57;;;;;;;1.92;1.08;;;;;;;10.56;100.00;100845.53;5050366;28;20810;-64
2021/10/12 06:04:22;;;;;;;2.38;1.20;;;;;;;10.55;100.00;100852.03;5046153;28;20107;-64
2021/10/12 06:06:48;;;;;;;2.28;1.30;;;;;;;10.60;100.00;100849.09;5045049;28;20029;-64
2021/10/12 06:09:13;;;;;;;1.63;1.05;;;;;;;10.56;100.00;100848.22;5044190;28;20044;-63
2021/10/12 06:11:39;;;;;;;3.25;1.48;;;;;;;10.62;100.00;100854.91;5042180;28;20025;-64
2021/10/12 06:14:05;;;;;;;2.17;1.30;;;;;;;10.69;100.00;100863.16;5047895;28;20051;-64
2021/10/12 06:16:30;;;;;;;3.42;1.38;;;;;;;10.72;100.00;100865.13;5043601;28;20033;-63
2021/10/12 06:18:55;;;;;;;6.88;1.20;;;;;;;10.76;100.00;100874.06;5044055;28;20402;-63
2021/10/12 06:21:21;;;;;;;1.45;0.93;;;;;;;10.77;100.00;100878.34;5041798;28;20141;-63
2021/10/12 06:23:47;;;;;;;2.45;1.77;;;;;;;10.86;100.00;100867.38;5045203;28;20060;-64
2021/10/12 06:26:12;;;;;;;3.80;2.72;;;;;;;10.90;100.00;100865.53;5043569;28;20154;-62
2021/10/12 06:28:38;;;;;;;5.00;3.22;;;;;;;10.87;100.00;100875.13;5045081;28;20486;-63
2021/10/12 06:31:05;;;;;;;5.30;2.20;;;;;;;10.86;100.00;100873.53;5044135;28;20037;-63
2021/10/12 06:33:31;;;;;;;7.40;1.98;;;;;;;10.90;100.00;100877.09;5044761;28;20033;-63
2021/10/12 06:35:56;;;;;;;3.65;1.90;;;;;;;10.87;100.00;100880.50;5040855;28;20289;-63
2021/10/12 06:38:22;;;;;;;2.95;1.70;;;;;;;10.86;100.00;100883.53;5045994;28;20037;-63
2021/10/12 06:40:47;;;;;;;4.68;2.00;;;;;;;10.88;100.00;100889.34;5047693;28;20037;-63
2021/10/12 06:43:13;;;;;;;4.72;2.20;;;;;;;10.86;100.00;100892.41;5047823;28;20116;-63
2021/10/12 06:45:39;;;;;;;3.83;1.83;;;;;;;10.90;100.00;100893.25;5046868;28;20508;-63
2021/10/12 06:48:04;;;;;;;3.88;1.65;;;;;;;10.93;100.00;100886.41;5038641;28;20044;-64
2021/10/12 06:50:30;;;;;;;2.90;1.50;;;;;;;11.01;100.00;100892.72;5042512;28;20041;-64
2021/10/12 06:52:55;;;;;;;2.50;1.50;;;;;;;10.94;100.00;100892.59;5043455;28;20064;-63
2021/10/12 06:55:21;;;;;;;2.60;1.60;;;;;;;10.86;100.00;100895.09;5040779;28;20036;-64
2021/10/12 06:57:47;;;;;;;7.20;1.35;;;;;;;10.90;100.00;100897.88;5045406;28;20616;-63
2021/10/12 07:00:15;;;;;;;2.65;1.13;;;;;;;10.97;100.00;100894.56;5041182;28;20033;-64
2021/10/12 07:02:42;;;;;;;1.73;1.17;;;;;;;10.99;100.00;100898.47;5042305;28;20127;-64
2021/10/12 07:05:08;;;;;;;2.58;1.10;;;;;;;11.00;100.00;100901.94;5039368;28;20040;-64
2021/10/12 07:07:33;;;;;;;1.95;1.05;;;;;;;11.02;100.00;100896.97;5046798;28;20068;-64
2021/10/12 07:09:59;;;;;;;1.48;0.95;;;;;;;11.05;100.00;100898.97;5044309;28;20135;-64
2021/10/12 07:12:25;;;;;;;0.70;0.70;;;;;;;11.09;100.00;100897.16;5045137;28;20091;-63
2021/10/12 07:14:50;;;;;;;4.43;1.10;;;;;;;11.07;100.00;100902.88;5046780;28;20043;-64
2021/10/12 07:17:16;;;;;;;0.68;0.60;;;;;;;11.09;100.00;100906.00;5041589;28;20029;-63
2021/10/12 07:19:41;;;;;;;1.10;0.77;;;;;;;11.13;100.00;100906.09;5042612;28;20032;-64
2021/10/12 07:22:07;;;;;;;2.97;0.75;;;;;;;11.22;100.00;100906.66;5045022;28;20064;-62
2021/10/12 07:24:32;;;;;;;0.90;0.55;;;;;;;11.24;100.00;100904.41;5044451;28;20033;-63
2021/10/12 07:26:58;;;;;;;0.70;0.40;;;;;;;11.30;100.00;100906.50;5046651;28;20088;-64
2021/10/12 07:29:23;;;;;;;1.30;0.70;;;;;;;11.33;100.00;100907.66;5046776;28;20067;-64
2021/10/12 07:31:49;;;;;;;0.63;0.50;;;;;;;11.44;100.00;100909.47;5044148;28;20111;-63
2021/10/12 07:34:14;;;;;;;1.05;0.52;;;;;;;11.55;100.00;100909.69;5045324;28;20110;-64
2021/10/12 07:36:40;;;;;;;0.30;0.30;;;;;;;11.64;100.00;100912.94;5047020;28;20496;-64
2021/10/12 07:39:07;;;;;;;1.67;0.50;;;;;;;11.80;100.00;100905.59;5043887;28;20032;-64
2021/10/12 07:41:32;;;;;;;0.43;0.38;;;;;;;12.06;100.00;100904.94;5042466;28;20056;-64
2021/10/12 07:43:58;;;;;;;1.58;0.40;;;;;;;12.08;100.00;100903.41;5036565;28;20040;-64
2021/10/12 07:46:25;;;;;;;0.22;0.22;;;;;;;12.30;100.00;100913.47;5039250;28;20592;-63
2021/10/12 07:48:53;;;;;;;1.25;0.77;;;;;;;12.45;100.00;100906.38;5037168;28;20036;-63
2021/10/12 07:51:20;;;;;;;0.45;0.35;;;;;;;12.63;100.00;100902.06;5039224;28;20021;-64
2021/10/12 07:53:45;;;;;;;1.05;0.28;;;;;;;12.68;100.00;100909.84;5038182;28;20036;-63
2021/10/12 07:56:17;;;;;;;0.70;0.40;;;;;;;12.84;100.00;100912.41;5040911;28;20531;-64
2021/10/12 07:58:43;;;;;;;4.30;0.55;;;;;;;12.86;100.00;100902.00;5039431;28;20041;-64
2021/10/12 08:01:09;;;;;;;0.43;0.20;;;;;;;12.91;100.00;100907.13;5042148;28;20032;-64
2021/10/12 08:03:35;;;;;;;2.53;0.40;;;;;;;12.94;100.00;100899.06;5046519;28;20095;-64
2021/10/12 08:06:01;;;;;;;2.05;0.43;;;;;;;13.01;100.00;100901.06;5046475;28;20028;-64
2021/10/12 08:08:26;;;;;;;0.40;0.40;;;;;;;13.09;100.00;100895.44;5043314;28;20116;-63
2021/10/12 08:10:53;;;;;;;0.43;0.35;;;;;;;13.20;99.90;100906.41;5039911;28;20040;-64
2021/10/12 08:13:20;;;;;;;2.55;0.40;;;;;;;13.20;99.22;100899.06;5043195;28;20111;-64
2021/10/12 08:15:53;;;;;;;0.90;0.22;;;;;;;13.32;98.06;100903.47;5040832;28;20043;-64
2021/10/12 08:18:24;;;;;;;0.20;0.20;;;;;;;13.33;97.64;100899.63;5043491;28;20704;-63
2021/10/12 08:20:50;;;;;;;2.80;0.22;;;;;;;13.36;96.88;100904.28;5046502;28;20116;-63
2021/10/12 08:23:16;;;;;;;4.47;0.50;;;;;;;13.37;96.16;100903.16;5046540;28;20039;-64
2021/10/12 08:25:42;;;;;;;1.67;0.28;;;;;;;13.35;96.51;100903.53;5041248;28;20024;-64
2021/10/12 08:28:08;;;;;;;2.00;0.40;;;;;;;13.45;95.43;100905.56;5042372;28;20033;-64
2021/10/12 08:30:33;;;;;;;0.32;0.22;;;;;;;13.40;94.69;100897.00;5039579;28;20036;-64
2021/10/12 08:33:00;;;;;;;0.52;0.13;;;;;;;13.34;94.67;100895.75;5040946;28;20065;-64
2021/10/12 08:35:26;;;;;;;1.35;0.38;;;;;;;13.44;95.03;100903.25;5041388;28;20497;-64
2021/10/12 08:37:52;;;;;;;1.55;0.30;;;;;;;13.42;94.72;100895.50;5037997;28;20036;-62
2021/10/12 08:40:18;;;;;;;1.17;0.30;;;;;;;13.47;94.19;100895.16;5045613;28;20405;-64
2021/10/12 08:42:48;;;;;;;3.78;0.30;;;;;;;13.60;93.32;100895.72;5046245;28;20043;-63
2021/10/12 08:45:15;;;;;;;2.78;0.30;;;;;;;13.71;92.68;100893.13;5048484;28;20044;-64
2021/10/12 08:47:41;;;;;;;2.15;0.20;;;;;;;13.71;92.12;100893.91;5040745;28;20540;-63
2021/10/12 08:50:11;;;;;;;0.28;0.20;;;;;;;13.82;91.32;100894.78;5043453;28;20037;-63
2021/10/12 08:52:36;;;;;;;0.55;0.38;;;;;;;13.87;91.47;100899.09;5042861;28;20025;-64
2021/10/12 08:55:02;;;;;;;1.88;0.20;;;;;;;14.05;89.88;100897.38;5041510;28;20490;-64
2021/10/12 08:57:36;;;;;;;0.20;0.20;;;;;;;14.09;89.73;100893.53;5042629;28;20028;-64
2021/10/12 09:00:11;;;;;;;1.00;0.30;;;;;;;14.28;88.57;100906.16;5045233;28;20048;-64
2021/10/12 09:03:16;;;;;;;0.90;0.20;;;;;;;14.46;85.75;100907.06;5040307;28;20039;-64
2021/10/12 09:06:03;;;;;;;0.28;0.20;;;;;;;14.58;84.45;100898.66;5040324;28;20028;-64
2021/10/12 09:08:35;;;;;;;2.90;0.60;;;;;;;14.78;83.56;100901.91;5032665;28;20037;-64
2021/10/12 09:11:20;;;;;;;0.50;0.30;;;;;;;15.07;80.00;100901.72;5044283;28;20604;-64
2021/10/12 09:13:53;;;;;;;2.95;0.10;;;;;;;15.17;78.96;100898.31;5044976;28;20111;-65
2021/10/12 09:16:20;;;;;;;0.35;0.10;;;;;;;15.32;78.07;100907.28;5036943;28;21739;-64
2021/10/12 09:18:46;;;;;;;2.92;0.20;;;;;;;15.39;76.62;100899.94;5040185;28;20045;-64
2021/10/12 09:21:25;;;;;;;0.60;0.30;;;;;;;15.17;77.60;100902.94;5044385;28;20523;-64
2021/10/12 09:24:01;;;;;;;1.95;0.20;;;;;;;15.23;76.93;100894.03;5045767;28;20524;-64
2021/10/12 09:26:32;;;;;;;1.02;0.20;;;;;;;15.28;77.15;100901.06;5037399;28;20045;-64
2021/10/12 09:29:29;;;;;;;4.22;0.30;;;;;;;15.29;77.05;100892.53;5040414;28;20481;-64
2021/10/12 09:31:57;;;;;;;0.43;0.13;;;;;;;15.27;77.03;100902.22;5038624;28;20525;-65
2021/10/12 09:34:28;;;;;;;0.35;0.20;;;;;;;15.22;76.36;100908.78;5041726;28;20036;-64
2021/10/12 09:36:54;;;;;;;0.10;0.10;;;;;;;15.21;74.52;100892.88;5039998;28;20041;-63
2021/10/12 09:39:22;;;;;;;0.45;0.20;;;;;;;15.13;72.72;100896.72;5037802;28;20033;-64
2021/10/12 09:41:56;;;;;;;1.58;0.25;;;;;;;15.11;74.37;100897.09;5039781;28;20508;-63
2021/10/12 09:44:22;;;;;;;0.90;0.20;;;;;;;15.15;77.35;100900.63;5046951;28;20832;-64
2021/10/12 09:46:49;;;;;;;1.20;0.45;;;;;;;15.15;77.49;100899.81;5042270;28;20066;-64
2021/10/12 09:49:17;;;;;;;3.35;0.20;;;;;;;15.20;75.20;100897.53;5048087;28;20028;-63
2021/10/12 09:52:02;;;;;;;0.77;0.20;;;;;;;15.25;73.10;100896.41;5044586;28;20475;-62
2021/10/12 09:54:34;;;;;;;0.70;0.20;;;;;;;15.26;72.90;100898.72;5038286;28;20545;-64
2021/10/12 09:57:02;;;;;;;0.10;0.10;;;;;;;15.29;73.82;100894.47;5044299;28;20036;-65
2021/10/12 09:59:29;;;;;;;1.50;0.40;;;;;;;15.36;73.07;100895.28;5047974;28;20068;-64
2021/10/12 10:01:56;;;;;;;1.95;0.30;;;;;;;15.41;74.12;100899.56;5040515;28;20040;-64
2021/10/12 10:04:23;;;;;;;1.10;0.32;;;;;;;15.49;73.40;100887.59;5044246;28;20044;-64
2021/10/12 10:06:50;;;;;;;1.58;0.35;;;;;;;15.42;71.83;100893.00;5043112;28;20090;-64
2021/10/12 10:09:20;;;;;;;1.80;0.30;;;;;;;15.39;71.42;100891.81;5046079;28;20500;-63
2021/10/12 10:11:46;;;;;;;0.65;0.13;;;;;;;15.39;73.19;100896.44;5042201;28;20040;-64
2021/10/12 10:14:12;;;;;;;0.20;0.20;;;;;;;15.45;72.83;100896.91;5048836;28;20036;-63
2021/10/12 10:16:49;;;;;;;0.17;0.10;;;;;;;15.50;70.89;100894.59;5043385;28;20064;-64
2021/10/12 10:19:19;;;;;;;2.65;0.20;;;;;;;15.54;70.89;100900.84;5044732;28;20738;-64
2021/10/12 10:21:48;;;;;;;1.25;0.30;;;;;;;15.54;70.14;100889.97;5039978;28;20052;-63
2021/10/12 10:24:37;;;;;;;2.53;0.47;;;;;;;15.49;68.69;100895.75;5042293;28;20037;-64
2021/10/12 10:27:03;;;;;;;1.60;0.17;;;;;;;15.59;68.49;100891.53;5042748;28;20053;-64
2021/10/12 10:29:37;;;;;;;2.25;0.15;;;;;;;15.63;69.48;100893.09;5040997;28;20541;-63
2021/10/12 10:32:11;;;;;;;0.32;0.13;;;;;;;15.54;71.44;100898.13;5048449;28;20115;-64
2021/10/12 10:34:41;;;;;;;0.47;0.20;;;;;;;15.61;70.24;100900.84;5044835;28;20033;-63
2021/10/12 10:37:15;;;;;;;1.70;0.20;;;;;;;15.63;69.08;100895.81;5049215;28;20037;-63
2021/10/12 10:39:49;;;;;;;0.95;0.20;;;;;;;15.71;69.69;100899.31;5044689;28;20036;-63
2021/10/12 10:42:27;;;;;;;0.90;0.10;;;;;;;15.72;68.79;100898.94;5048758;28;20044;-63
2021/10/12 10:44:56;;;;;;;0.20;0.20;;;;;;;15.81;68.74;100898.59;5046847;28;20114;-64
2021/10/12 10:47:40;;;;;;;0.10;0.10;;;;;;;15.74;66.86;100904.75;5047378;28;20083;-63
2021/10/12 10:50:18;;;;;;;2.30;0.20;;;;;;;15.73;66.53;100905.94;5042391;28;20059;-64
2021/10/12 10:52:46;;;;;;;0.70;0.20;;;;;;;15.70;67.88;100903.22;5045079;28;20063;-64
2021/10/12 10:55:21;;;;;;;0.68;0.30;;;;;;;15.70;68.19;100909.41;5042351;28;20391;-64
2021/10/12 10:58:11;;;;;;;0.43;0.17;;;;;;;15.67;67.50;100904.75;5039791;28;20433;-64
2021/10/12 11:00:36;;;;;;;1.27;0.20;;;;;;;15.60;67.90;100896.56;5043915;28;20075;-66
2021/10/12 11:03:03;;;;;;;0.73;0.13;;;;;;;15.54;67.30;100908.19;5040888;28;20061;-64
2021/10/12 11:05:40;;;;;;;1.65;0.25;;;;;;;15.44;67.46;100898.84;5044219;28;20085;-62
2021/10/12 11:08:17;;;;;;;0.28;0.20;;;;;;;15.34;68.83;100894.09;5043484;28;20405;-63
2021/10/12 11:10:46;;;;;;;0.38;0.30;;;;;;;15.23;68.51;100893.28;5045958;28;20028;-65
2021/10/12 11:13:26;;;;;;;0.85;0.20;;;;;;;15.20;69.61;100888.59;5040599;28;20028;-64
2021/10/12 11:15:51;;;;;;;0.15;0.10;;;;;;;15.19;69.36;100884.34;5045325;28;20040;-64
2021/10/12 11:18:17;;;;;;;2.78;0.30;;;;;;;15.19;70.25;100900.63;5044233;28;20045;-64
2021/10/12 11:20:55;;;;;;;0.65;0.43;;;;;;;15.39;70.31;100896.44;5044128;28;20127;-64